Time;durP1;ratioP1;P1;durP2;ratioP2;P2;SDS_P1;SDS_P2;PMS_P1;PMS_P2;Temp;Humidity;BMP_temperature;BMP_pressure;BME280_temperature;BME280_humidity;BME280_pressure;Samples;Min_cycle;Max_cycle;Signal;HPM_P1;HPM_P2
2021/08/29 00:01:27;;;;;;;;;16.75;14.25;;;;;31.11;36.37;100084.28;144171;731;131025;-68
2021/08/29 00:04:01;;;;;;;;;20.50;20.50;;;;;30.97;36.21;100077.81;144153;598;132915;-68
2021/08/29 00:06:35;;;;;;;;;14.50;14.50;;;;;30.79;35.85;100083.66;144166;607;132012;-70
2021/08/29 00:09:09;;;;;;;;;17.75;16.75;;;;;30.78;35.75;100084.69;144144;626;132018;-69
2021/08/29 00:11:43;;;;;;;;;14.25;13.00;;;;;30.83;35.34;100086.84;144173;618;132008;-68
2021/08/29 00:14:17;;;;;;;;;17.75;17.75;;;;;30.89;35.44;100078.78;144161;678;132914;-68
2021/08/29 00:16:51;;;;;;;;;13.00;13.00;;;;;30.99;35.02;100077.63;144165;634;132012;-68
2021/08/29 00:19:25;;;;;;;;;17.00;16.00;;;;;31.04;34.72;100083.34;144151;647;132018;-69
2021/08/29 00:21:59;;;;;;;;;15.00;15.00;;;;;31.04;34.75;100088.75;144153;575;132010;-69
2021/08/29 00:24:33;;;;;;;;;15.50;14.00;;;;;30.84;35.43;100083.94;144146;576;132914;-68
2021/08/29 00:27:07;;;;;;;;;14.50;14.50;;;;;31.01;34.92;100076.41;144171;583;132012;-69
2021/08/29 00:29:41;;;;;;;;;16.75;15.50;;;;;30.96;35.01;100075.31;144147;620;131914;-71
2021/08/29 00:32:15;;;;;;;;;17.50;14.25;;;;;30.91;35.12;100080.44;144164;590;132010;-68
2021/08/29 00:34:49;;;;;;;;;13.00;12.00;;;;;30.89;35.17;100080.66;144154;612;131914;-68
2021/08/29 00:37:23;;;;;;;;;19.75;18.00;;;;;30.86;35.51;100078.31;144173;573;132010;-68
2021/08/29 00:39:57;;;;;;;;;19.25;17.50;;;;;30.86;35.56;100076.44;144163;620;132914;-68
2021/08/29 00:42:31;;;;;;;;;14.50;13.25;;;;;30.82;35.99;100074.31;144166;644;132012;-69
2021/08/29 00:45:05;;;;;;;;;14.00;12.00;;;;;30.82;35.98;100075.16;144145;596;132914;-69
2021/08/29 00:47:39;;;;;;;;;15.50;15.25;;;;;30.65;36.06;100071.84;144149;583;132010;-68
2021/08/29 00:50:16;;;;;;;;;17.75;16.75;;;;;30.68;35.96;100068.75;144145;556;132014;-69
2021/08/29 00:52:50;;;;;;;;;13.75;12.50;;;;;30.72;35.90;100080.06;144171;589;132010;-69
2021/08/29 00:55:24;;;;;;;;;14.75;14.75;;;;;30.79;35.86;100070.13;144142;565;132915;-69
2021/08/29 00:57:58;;;;;;;;;12.25;12.25;;;;;30.82;35.60;100069.72;144170;577;131020;-68
2021/08/29 01:00:35;;;;;;;;;16.50;14.75;;;;;30.81;35.29;100068.06;144146;686;132914;-68
2021/08/29 01:03:09;;;;;;;;;16.00;15.00;;;;;30.77;35.48;100069.50;144173;575;132010;-68
2021/08/29 01:05:51;;;;;;;;;13.25;12.50;;;;;30.79;35.22;100074.72;144156;613;132012;-70
2021/08/29 01:08:27;;;;;;;;;12.50;12.00;;;;;30.69;35.68;100077.72;144168;621;132010;-70
2021/08/29 01:11:13;;;;;;;;;14.25;13.75;;;;;30.75;35.31;100076.94;144146;584;133020;-68
2021/08/29 01:13:52;;;;;;;;;10.00;10.00;;;;;30.72;35.43;100080.06;144158;624;131020;-69
2021/08/29 01:16:27;;;;;;;;;15.50;14.25;;;;;30.63;35.71;100076.59;144152;625;132013;-70
2021/08/29 01:19:03;;;;;;;;;14.25;14.25;;;;;30.58;35.77;100079.06;144164;590;132012;-68
2021/08/29 01:21:41;;;;;;;;;14.75;13.50;;;;;30.49;36.18;100075.59;144152;571;131914;-70
2021/08/29 01:24:22;;;;;;;;;12.75;12.50;;;;;30.33;36.26;100070.34;144177;611;132012;-69
2021/08/29 01:27:32;;;;;;;;;13.00;13.00;;;;;30.41;35.97;100072.97;144152;566;131914;-70
2021/08/29 01:30:07;;;;;;;;;18.75;16.25;;;;;30.41;36.02;100081.09;144174;626;131012;-69
2021/08/29 01:32:42;;;;;;;;;13.75;12.75;;;;;30.38;36.02;100074.16;144162;561;132012;-69
2021/08/29 01:35:18;;;;;;;;;12.00;12.00;;;;;30.39;36.03;100069.62;144171;597;132010;-69
2021/08/29 01:37:52;;;;;;;;;12.75;12.50;;;;;30.41;35.88;100072.13;144150;679;132914;-70
2021/08/29 01:40:26;;;;;;;;;13.75;13.00;;;;;30.41;35.87;100078.38;144150;597;132010;-70
2021/08/29 01:43:01;;;;;;;;;13.75;13.75;;;;;30.34;35.73;100067.44;144146;666;132012;-68
2021/08/29 01:45:36;;;;;;;;;12.50;11.50;;;;;30.23;36.10;100067.09;144170;593;132010;-67
2021/08/29 01:48:10;;;;;;;;;11.75;10.00;;;;;30.10;36.25;100067.75;144149;703;132014;-67
2021/08/29 01:50:46;;;;;;;;;13.00;13.00;;;;;30.02;36.94;100064.13;144174;576;131022;-66
2021/08/29 01:53:19;;;;;;;;;11.00;10.75;;;;;30.15;36.68;100074.28;144154;586;132915;-67
2021/08/29 01:55:53;;;;;;;;;11.25;11.25;;;;;30.28;36.37;100065.50;144171;563;132012;-67
2021/08/29 01:58:27;;;;;;;;;14.00;12.00;;;;;30.26;36.51;100062.12;144169;565;132020;-68
2021/08/29 02:01:04;;;;;;;;;14.00;14.00;;;;;30.24;36.61;100074.19;144173;677;132010;-67
2021/08/29 02:03:38;;;;;;;;;15.00;15.00;;;;;30.22;36.68;100063.53;144146;590;132020;-68
2021/08/29 02:06:24;;;;;;;;;10.50;10.50;;;;;30.34;36.62;100062.03;144158;608;131021;-68
2021/08/29 02:09:05;;;;;;;;;13.00;12.50;;;;;30.26;36.89;100054.03;144151;572;132914;-68
2021/08/29 02:11:43;;;;;;;;;12.25;12.25;;;;;30.23;36.74;100059.00;144168;563;132010;-69
2021/08/29 02:14:25;;;;;;;;;16.25;14.75;;;;;30.18;36.70;100064.94;144153;582;132914;-70
2021/08/29 02:17:00;;;;;;;;;12.50;12.25;;;;;30.15;37.28;100066.16;144178;573;131025;-69
2021/08/29 02:19:38;;;;;;;;;14.75;12.75;;;;;30.20;36.96;100065.62;144150;610;132020;-70
2021/08/29 02:22:13;;;;;;;;;15.50;14.75;;;;;30.21;36.89;100067.28;144167;575;132021;-69
2021/08/29 02:24:47;;;;;;;;;14.25;14.00;;;;;30.06;37.05;100064.59;144160;593;132014;-69
2021/08/29 02:27:22;;;;;;;;;16.50;15.00;;;;;30.02;37.15;100076.81;144173;615;131020;-69
2021/08/29 02:29:56;;;;;;;;;13.25;12.25;;;;;30.05;36.89;100071.03;144149;613;132020;-72
2021/08/29 02:32:31;;;;;;;;;13.00;13.00;;;;;30.17;36.88;100074.13;144151;595;133010;-69
2021/08/29 02:35:05;;;;;;;;;15.25;14.75;;;;;30.26;36.83;100075.69;144144;570;132014;-68
2021/08/29 02:37:40;;;;;;;;;18.25;16.00;;;;;30.27;36.55;100079.25;144167;626;132012;-68
2021/08/29 02:40:16;;;;;;;;;12.00;12.00;;;;;30.19;36.75;100074.75;144151;620;132012;-69
2021/08/29 02:42:52;;;;;;;;;13.75;13.75;;;;;30.16;36.65;100069.72;144167;577;132010;-69
2021/08/29 02:45:27;;;;;;;;;11.25;11.25;;;;;30.03;36.87;100075.75;144152;686;132013;-69
2021/08/29 02:48:01;;;;;;;;;14.50;14.50;;;;;29.94;37.45;100082.31;144173;586;132010;-70
2021/08/29 02:50:36;;;;;;;;;11.75;11.75;;;;;29.87;37.47;100084.91;144156;581;132015;-70
2021/08/29 02:53:10;;;;;;;;;16.50;15.75;;;;;29.69;38.01;100074.41;144173;566;132012;-69
2021/08/29 02:55:44;;;;;;;;;15.50;13.75;;;;;29.38;38.59;100075.34;144145;573;132914;-70
2021/08/29 02:58:20;;;;;;;;;15.25;14.50;;;;;29.51;38.22;100072.88;144157;579;131021;-69
2021/08/29 03:00:54;;;;;;;;;16.25;14.25;;;;;29.47;38.33;100076.97;144147;723;132915;-69
2021/08/29 03:03:29;;;;;;;;;13.75;12.00;;;;;29.43;38.25;100072.09;144173;609;132010;-69
2021/08/29 03:06:02;;;;;;;;;14.00;14.00;;;;;29.41;38.38;100074.16;144146;565;132015;-69
2021/08/29 03:08:37;;;;;;;;;15.25;14.50;;;;;29.43;38.71;100067.53;144168;564;131020;-70
2021/08/29 03:11:11;;;;;;;;;15.00;14.25;;;;;29.44;38.60;100069.19;144146;599;132020;-71
2021/08/29 03:13:45;;;;;;;;;16.50;14.75;;;;;29.42;38.48;100076.66;144172;613;132011;-69
2021/08/29 03:16:20;;;;;;;;;13.75;13.00;;;;;29.47;38.68;100076.97;144161;591;132012;-70
2021/08/29 03:18:54;;;;;;;;;15.50;15.25;;;;;29.48;38.43;100066.97;144174;635;131020;-69
2021/08/29 03:21:28;;;;;;;;;13.50;13.50;;;;;29.44;38.59;100071.91;144147;605;132012;-68
2021/08/29 03:24:03;;;;;;;;;14.50;13.75;;;;;29.47;38.28;100082.38;144156;580;131020;-68
2021/08/29 03:26:37;;;;;;;;;12.25;12.25;;;;;29.40;38.35;100081.37;144149;602;131914;-70
2021/08/29 03:29:11;;;;;;;;;154.25;146.50;;;;;29.41;38.29;100074.16;144170;610;132013;-68
2021/08/29 03:31:45;;;;;;;;;188.75;170.50;;;;;29.37;38.35;100079.91;144152;604;132913;-68
2021/08/29 03:34:23;;;;;;;;;23.50;23.00;;;;;29.27;38.50;100084.72;144170;570;132010;-68
2021/08/29 03:36:57;;;;;;;;;20.75;20.75;;;;;29.08;38.87;100082.47;144149;569;132013;-71
2021/08/29 03:39:31;;;;;;;;;14.25;14.25;;;;;29.17;38.71;100087.63;144170;644;132010;-69
2021/08/29 03:42:07;;;;;;;;;19.25;17.50;;;;;29.24;38.56;100081.50;144160;591;132018;-69
2021/08/29 03:44:41;;;;;;;;;13.00;12.25;;;;;29.29;38.54;100079.12;144174;610;131021;-69
2021/08/29 03:47:15;;;;;;;;;16.75;16.00;;;;;29.23;38.55;100083.38;144150;611;131914;-69
2021/08/29 03:49:49;;;;;;;;;14.25;13.75;;;;;29.25;38.71;100086.75;144148;623;132013;-70
2021/08/29 03:52:24;;;;;;;;;13.00;12.00;;;;;29.28;38.20;100085.53;144145;678;132014;-69
2021/08/29 03:54:58;;;;;;;;;17.00;16.25;;;;;29.26;38.44;100087.59;144163;571;132012;-70
2021/08/29 03:57:34;;;;;;;;;16.75;16.00;;;;;29.15;38.64;100086.97;144147;606;131914;-70
2021/08/29 04:00:09;;;;;;;;;16.00;15.50;;;;;29.16;38.79;100094.06;144165;579;132012;-71
2021/08/29 04:02:43;;;;;;;;;15.50;14.00;;;;;29.16;38.93;100091.34;144148;606;132914;-70
2021/08/29 04:05:18;;;;;;;;;13.25;13.25;;;;;29.19;38.76;100092.84;144169;575;132012;-70
2021/08/29 04:07:56;;;;;;;;;16.75;16.75;;;;;29.16;39.10;100095.91;144162;619;131915;-71
2021/08/29 04:10:30;;;;;;;;;15.25;14.25;;;;;29.22;39.01;100100.59;144162;577;132012;-72
2021/08/29 04:13:05;;;;;;;;;12.50;12.50;;;;;29.28;38.79;100107.16;144145;600;132014;-69
2021/08/29 04:15:41;;;;;;;;;14.00;12.75;;;;;29.31;38.84;100104.13;144154;573;131020;-70
2021/08/29 04:18:15;;;;;;;;;18.75;18.00;;;;;29.16;39.43;100096.75;144143;636;132021;-70
2021/08/29 04:20:50;;;;;;;;;14.50;14.25;;;;;29.33;38.65;100104.78;144166;614;132010;-70
2021/08/29 04:23:24;;;;;;;;;17.75;15.50;;;;;29.33;38.89;100108.31;144147;598;132020;-69
2021/08/29 04:25:59;;;;;;;;;16.50;16.00;;;;;29.16;39.09;100107.56;144167;608;132012;-70
2021/08/29 04:28:33;;;;;;;;;17.75;17.75;;;;;29.17;39.23;100106.56;144148;569;132012;-70
2021/08/29 04:31:13;;;;;;;;;17.75;16.00;;;;;29.13;39.79;100107.06;144166;596;132010;-70
2021/08/29 04:33:47;;;;;;;;;15.50;15.25;;;;;29.21;39.49;100104.31;144157;575;132914;-70
2021/08/29 04:36:24;;;;;;;;;12.25;12.25;;;;;29.31;39.24;100104.13;144174;612;132009;-68
2021/08/29 04:38:58;;;;;;;;;16.00;14.75;;;;;29.32;39.25;100111.19;144147;611;131914;-66
2021/08/29 04:41:32;;;;;;;;;13.75;12.00;;;;;29.30;39.62;100108.69;144153;613;132010;-66
2021/08/29 04:44:07;;;;;;;;;14.75;14.75;;;;;29.44;39.27;100107.03;144150;570;132012;-66
2021/08/29 04:46:42;;;;;;;;;14.00;14.00;;;;;29.49;39.22;100110.06;144165;643;132010;-67
2021/08/29 04:49:16;;;;;;;;;14.00;12.00;;;;;29.65;38.52;100116.34;144149;611;132914;-69
2021/08/29 04:51:50;;;;;;;;;14.75;12.50;;;;;29.74;38.07;100111.72;144171;616;132010;-69
2021/08/29 04:54:24;;;;;;;;;18.75;15.25;;;;;29.90;38.45;100118.87;144150;593;132012;-69
2021/08/29 04:56:58;;;;;;;;;11.25;10.75;;;;;30.09;38.07;100112.09;144166;566;132012;-69
2021/08/29 04:59:32;;;;;;;;;12.50;10.50;;;;;30.25;37.38;100111.91;144158;586;132014;-69
2021/08/29 05:02:06;;;;;;;;;15.25;14.25;;;;;30.41;37.61;100108.16;144169;564;132010;-69
2021/08/29 05:04:40;;;;;;;;;12.25;12.25;;;;;30.60;37.27;100114.06;144144;609;133012;-71
2021/08/29 05:07:14;;;;;;;;;13.25;12.50;;;;;30.92;36.92;100120.94;144153;569;131022;-70
2021/08/29 05:09:49;;;;;;;;;13.50;11.75;;;;;31.16;36.07;100117.03;144148;603;132914;-69
2021/08/29 05:12:23;;;;;;;;;12.50;11.25;;;;;31.36;36.31;100116.41;144171;566;132012;-69
2021/08/29 05:14:57;;;;;;;;;13.00;12.50;;;;;31.56;36.10;100113.88;144154;589;131914;-67
2021/08/29 05:17:31;;;;;;;;;12.75;12.75;;;;;31.75;35.57;100123.25;144175;585;132010;-69
2021/08/29 05:20:05;;;;;;;;;12.50;12.50;;;;;31.85;35.77;100118.34;144153;570;131914;-70
2021/08/29 05:22:39;;;;;;;;;12.00;12.00;;;;;32.14;34.33;100119.16;144167;633;132010;-68
2021/08/29 05:25:13;;;;;;;;;12.50;12.00;;;;;32.27;34.57;100117.59;144157;628;132014;-69
2021/08/29 05:27:47;;;;;;;;;12.75;11.50;;;;;32.48;33.80;100119.38;144173;606;132012;-69
2021/08/29 05:30:21;;;;;;;;;10.25;10.25;;;;;32.81;33.14;100118.72;144145;583;132014;-69
2021/08/29 05:32:55;;;;;;;;;11.00;11.00;;;;;32.68;33.19;100114.87;144158;577;132012;-71
2021/08/29 05:35:29;;;;;;;;;11.75;10.50;;;;;32.75;31.84;100120.34;144149;571;132013;-70
2021/08/29 05:38:03;;;;;;;;;10.00;9.75;;;;;33.02;32.26;100112.28;144177;577;131020;-69
2021/08/29 05:40:37;;;;;;;;;12.25;10.25;;;;;33.24;31.75;100110.28;144141;658;132013;-69
2021/08/29 05:43:11;;;;;;;;;9.00;9.00;;;;;33.28;31.76;100105.28;144180;630;132012;-69
2021/08/29 05:45:45;;;;;;;;;12.50;12.50;;;;;33.38;31.59;100106.53;144145;641;132014;-69
2021/08/29 05:48:19;;;;;;;;;11.00;9.75;;;;;33.32;31.87;100107.34;144173;622;132010;-69
2021/08/29 05:50:53;;;;;;;;;10.25;8.75;;;;;33.50;31.10;100109.47;144163;743;131915;-67
2021/08/29 05:53:27;;;;;;;;;12.25;12.25;;;;;33.15;31.60;100109.62;144170;786;132010;-68
2021/08/29 05:56:01;;;;;;;;;12.25;11.00;;;;;33.58;30.91;100094.81;144154;630;132012;-68
2021/08/29 05:58:35;;;;;;;;;10.25;10.25;;;;;33.29;31.02;100105.06;144153;565;132012;-68
2021/08/29 06:01:09;;;;;;;;;7.25;7.00;;;;;33.66;31.25;100096.50;144153;575;132014;-68
2021/08/29 06:03:43;;;;;;;;;9.75;8.25;;;;;33.98;29.71;100104.87;144175;627;132012;-69
2021/08/29 06:06:17;;;;;;;;;8.75;7.75;;;;;34.02;28.92;100104.25;144154;598;132043;-70
2021/08/29 06:08:51;;;;;;;;;9.75;9.00;;;;;34.01;28.27;100104.44;144174;570;132010;-70
2021/08/29 06:11:25;;;;;;;;;7.25;6.50;;;;;34.10;28.15;100103.16;144156;599;132014;-69
2021/08/29 06:13:59;;;;;;;;;9.00;9.00;;;;;33.50;28.16;100106.75;144178;566;131020;-70
2021/08/29 06:16:33;;;;;;;;;10.50;10.25;;;;;34.16;27.95;100101.47;144163;636;132020;-68
2021/08/29 06:19:07;;;;;;;;;9.25;9.25;;;;;34.26;27.52;100104.59;144173;592;132010;-70
2021/08/29 06:21:40;;;;;;;;;8.00;8.00;;;;;33.92;28.35;100098.37;144159;597;132012;-69
2021/08/29 06:24:14;;;;;;;;;13.00;11.25;;;;;34.16;27.99;100105.06;144153;638;131020;-70
2021/08/29 06:26:48;;;;;;;;;9.00;9.00;;;;;34.29;27.74;100100.63;144146;653;132014;-69
2021/08/29 06:29:22;;;;;;;;;10.75;10.75;;;;;34.39;28.02;100109.19;144172;602;132012;-69
2021/08/29 06:31:56;;;;;;;;;9.75;9.75;;;;;34.42;27.79;100106.06;144151;609;132914;-70
2021/08/29 06:34:30;;;;;;;;;7.00;7.00;;;;;34.73;27.21;100107.19;144184;584;131021;-69
2021/08/29 06:37:04;;;;;;;;;9.50;9.50;;;;;35.03;26.65;100112.09;144149;589;132914;-69
2021/08/29 06:39:38;;;;;;;;;10.50;10.00;;;;;34.71;27.10;100114.75;144176;578;131020;-69
2021/08/29 06:42:12;;;;;;;;;8.25;8.25;;;;;34.43;27.58;100110.44;144162;628;132914;-70
2021/08/29 06:44:46;;;;;;;;;11.00;10.00;;;;;34.60;27.61;100108.09;144170;604;132012;-72
2021/08/29 06:47:20;;;;;;;;;11.00;10.25;;;;;35.12;26.53;100105.31;144151;615;131914;-70
2021/08/29 06:49:54;;;;;;;;;9.00;9.00;;;;;35.23;26.51;100103.78;144155;632;132010;-69
2021/08/29 06:52:28;;;;;;;;;10.00;10.00;;;;;35.05;27.16;100104.53;144146;624;132012;-68
2021/08/29 06:55:02;;;;;;;;;11.00;11.00;;;;;34.73;26.73;100094.41;144173;603;132010;-69
2021/08/29 06:57:36;;;;;;;;;10.00;10.00;;;;;34.85;26.84;100110.91;144157;664;131915;-68
2021/08/29 07:00:10;;;;;;;;;12.25;11.50;;;;;35.12;27.06;100102.59;144173;603;132010;-68
2021/08/29 07:02:44;;;;;;;;;11.75;9.75;;;;;35.69;26.25;100104.50;144149;587;132018;-69
2021/08/29 07:05:18;;;;;;;;;10.75;10.75;;;;;35.96;26.00;100099.66;144179;619;132012;-69
2021/08/29 07:07:52;;;;;;;;;12.50;11.75;;;;;36.05;25.39;100102.94;144165;611;132014;-68
2021/08/29 07:10:26;;;;;;;;;12.25;11.75;;;;;35.53;26.67;100104.00;144165;573;132012;-68
2021/08/29 07:13:00;;;;;;;;;11.00;11.00;;;;;36.18;25.88;100101.94;144152;563;132914;-69
2021/08/29 07:15:34;;;;;;;;;10.00;9.00;;;;;36.37;25.18;100100.91;144153;611;132012;-68
2021/08/29 07:18:08;;;;;;;;;9.50;9.50;;;;;36.24;25.40;100101.06;144156;564;132012;-68
2021/08/29 07:20:42;;;;;;;;;10.50;10.50;;;;;36.44;25.25;100103.56;144169;616;132012;-67
2021/08/29 07:23:17;;;;;;;;;8.75;8.75;;;;;36.69;24.49;100102.63;144157;589;132914;-70
2021/08/29 07:25:51;;;;;;;;;10.00;9.25;;;;;36.74;24.44;100094.56;144174;583;132013;-69
2021/08/29 07:28:25;;;;;;;;;11.25;8.75;;;;;35.62;25.11;100095.53;144147;649;132014;-69
2021/08/29 07:31:00;;;;;;;;;11.50;10.00;;;;;34.67;26.29;100097.16;144172;576;132013;-68
2021/08/29 07:33:33;;;;;;;;;10.25;8.00;;;;;34.87;25.84;100103.38;144170;606;132915;-67
2021/08/29 07:36:08;;;;;;;;;12.25;11.00;;;;;35.28;26.42;100098.47;144170;597;132012;-68
2021/08/29 07:38:42;;;;;;;;;11.75;10.75;;;;;36.44;24.82;100100.84;144159;658;131914;-67
2021/08/29 07:41:16;;;;;;;;;8.00;8.00;;;;;36.92;24.11;100100.03;144162;579;132010;-68
2021/08/29 07:43:49;;;;;;;;;9.50;9.50;;;;;36.58;24.19;100096.88;144152;577;132914;-68
2021/08/29 07:46:26;;;;;;;;;11.25;11.00;;;;;36.87;24.41;100097.16;144176;564;132012;-69
2021/08/29 07:49:00;;;;;;;;;12.00;11.00;;;;;36.21;25.36;100085.09;144147;565;132915;-68
2021/08/29 07:51:34;;;;;;;;;9.00;9.00;;;;;37.16;23.56;100089.16;144172;661;132010;-68
2021/08/29 07:54:08;;;;;;;;;7.00;7.00;;;;;37.16;23.77;100091.06;144155;581;132020;-67
2021/08/29 07:56:42;;;;;;;;;9.00;9.00;;;;;37.23;23.96;100083.59;144179;658;131021;-67
2021/08/29 07:59:16;;;;;;;;;12.50;10.75;;;;;36.31;24.28;100093.63;144159;617;132014;-70
2021/08/29 08:01:49;;;;;;;;;9.75;9.50;;;;;37.29;23.73;100087.31;144178;628;131021;-70
2021/08/29 08:04:23;;;;;;;;;9.25;9.25;;;;;36.92;23.32;100091.84;144153;601;132014;-70
2021/08/29 08:06:57;;;;;;;;;9.50;9.50;;;;;36.92;23.01;100089.09;144151;600;132012;-67
2021/08/29 08:09:31;;;;;;;;;11.00;9.00;;;;;36.59;24.26;100089.50;144153;597;132914;-68
2021/08/29 08:12:05;;;;;;;;;9.75;9.00;;;;;35.72;24.84;100093.16;144171;573;132012;-67
2021/08/29 08:14:39;;;;;;;;;8.50;7.75;;;;;36.00;24.69;100089.13;144159;577;132914;-66
2021/08/29 08:17:13;;;;;;;;;8.25;8.25;;;;;36.81;24.13;100084.41;144178;628;131021;-66
2021/08/29 08:19:47;;;;;;;;;7.50;7.50;;;;;37.09;23.53;100082.97;144154;593;131914;-67
2021/08/29 08:22:21;;;;;;;;;7.00;7.00;;;;;36.80;23.19;100087.34;144179;570;132010;-66
2021/08/29 08:24:55;;;;;;;;;8.75;8.75;;;;;37.64;22.51;100086.53;144173;606;132012;-68
2021/08/29 08:27:29;;;;;;;;;11.25;11.00;;;;;37.77;22.58;100075.38;144173;615;132010;-69
2021/08/29 08:30:03;;;;;;;;;9.00;7.50;;;;;37.57;22.89;100075.69;144156;599;132914;-68
2021/08/29 08:32:37;;;;;;;;;9.50;9.50;;;;;36.62;23.16;100077.28;144164;566;131021;-68
2021/08/29 08:35:11;;;;;;;;;9.50;9.50;;;;;38.10;21.32;100071.19;144153;600;132012;-68
2021/08/29 08:37:45;;;;;;;;;10.00;9.00;;;;;38.51;21.49;100068.47;144169;614;132012;-68
2021/08/29 08:40:18;;;;;;;;;9.25;9.25;;;;;38.74;21.49;100067.56;144154;655;132019;-68
2021/08/29 08:42:55;;;;;;;;;8.50;8.50;;;;;38.76;21.60;100059.94;144173;608;132012;-68
2021/08/29 08:45:29;;;;;;;;;10.50;9.00;;;;;39.05;20.84;100057.97;144158;587;131914;-71
2021/08/29 08:48:04;;;;;;;;;9.25;9.25;;;;;39.03;20.28;100060.16;144175;617;132010;-70
2021/08/29 08:50:39;;;;;;;;;9.50;8.75;;;;;38.36;21.14;100058.06;144161;711;132020;-71
2021/08/29 08:53:15;;;;;;;;;8.50;8.50;;;;;38.80;21.14;100055.62;144170;609;132012;-71
2021/08/29 08:55:51;;;;;;;;;8.00;8.00;;;;;38.96;20.65;100058.63;144152;581;132014;-70
2021/08/29 09:01:52;;;;;;;;;9.00;9.00;;;;;39.65;19.86;100046.66;144161;638;132013;-67
2021/08/29 09:04:26;;;;;;;;;7.00;7.00;;;;;39.26;19.71;100042.75;144180;579;131020;-68
2021/08/29 09:07:03;;;;;;;;;9.25;9.25;;;;;39.33;19.31;100047.22;144151;607;132014;-68
2021/08/29 09:09:38;;;;;;;;;6.50;6.50;;;;;39.12;19.36;100041.34;144176;583;132012;-68
2021/08/29 09:12:12;;;;;;;;;7.25;7.25;;;;;38.84;19.74;100042.25;144158;646;131912;-69
2021/08/29 09:14:59;;;;;;;;;7.75;6.75;;;;;37.03;21.51;100032.78;144179;652;131021;-69
2021/08/29 09:17:51;;;;;;;;;8.00;8.00;;;;;36.06;22.40;100039.03;144166;586;132913;-68
2021/08/29 09:20:28;;;;;;;;;9.75;9.00;;;;;37.87;20.59;100037.25;144168;591;132012;-68
2021/08/29 09:23:07;;;;;;;;;19.25;17.25;;;;;38.16;20.22;100037.31;144150;619;132912;-68
2021/08/29 09:25:51;;;;;;;;;56.00;44.75;;;;;38.80;19.70;100036.44;144152;647;133010;-69
2021/08/29 09:28:28;;;;;;;;;59.25;45.50;;;;;38.57;20.19;100035.41;144150;607;132012;-68
2021/08/29 09:31:03;;;;;;;;;51.50;40.50;;;;;38.86;19.83;100032.69;144169;570;132010;-69
2021/08/29 09:33:37;;;;;;;;;13.00;11.75;;;;;37.93;20.58;100035.47;144150;566;132014;-68
2021/08/29 09:36:13;;;;;;;;;17.75;17.75;;;;;38.52;20.09;100026.28;144173;627;131020;-69
2021/08/29 09:38:47;;;;;;;;;14.50;14.50;;;;;38.52;19.62;100029.00;144144;622;132014;-68
2021/08/29 09:41:28;;;;;;;;;16.25;16.00;;;;;38.56;19.73;100020.06;144169;656;131044;-68
2021/08/29 09:44:28;;;;;;;;;10.00;10.00;;;;;38.93;19.17;100016.06;144166;648;132912;-68
2021/08/29 09:47:05;;;;;;;;;31.50;27.00;;;;;38.24;19.97;100015.06;144163;638;132021;-68
2021/08/29 09:49:44;;;;;;;;;18.00;18.00;;;;;38.90;19.22;100008.34;144149;563;132912;-67
2021/08/29 09:52:30;;;;;;;;;15.75;14.75;;;;;39.39;18.91;100018.78;144160;594;131036;-68
2021/08/29 09:55:04;;;;;;;;;11.25;11.25;;;;;39.16;19.24;100012.38;144144;590;132031;-69
2021/08/29 09:57:38;;;;;;;;;9.50;9.50;;;;;39.37;18.13;100008.06;144169;591;132012;-68
2021/08/29 10:00:14;;;;;;;;;11.75;11.75;;;;;40.00;18.03;100007.84;144151;600;132014;-67
2021/08/29 10:02:49;;;;;;;;;11.00;11.00;;;;;38.10;19.24;100010.91;144174;600;132010;-68
2021/08/29 10:05:25;;;;;;;;;8.50;7.50;;;;;39.33;18.73;99995.06;144155;569;132012;-68
2021/08/29 10:08:09;;;;;;;;;9.00;8.50;;;;;39.65;17.78;99991.72;144180;608;132010;-68
2021/08/29 10:10:44;;;;;;;;;9.00;8.50;;;;;39.82;18.09;99995.25;144165;594;132012;-68
2021/08/29 10:13:19;;;;;;;;;7.00;7.00;;;;;38.71;18.29;100000.34;144176;656;132010;-69
2021/08/29 10:15:53;;;;;;;;;9.00;8.75;;;;;39.47;18.65;99988.16;144155;617;132013;-68
2021/08/29 10:18:27;;;;;;;;;6.00;5.50;;;;;39.95;17.91;99985.78;144162;591;132010;-68
2021/08/29 10:21:03;;;;;;;;;12.50;11.25;;;;;40.21;17.11;99989.69;144150;668;132912;-67
2021/08/29 10:23:37;;;;;;;;;9.00;9.00;;;;;40.64;17.06;100000.06;144172;566;132013;-68
2021/08/29 10:26:13;;;;;;;;;10.25;9.00;;;;;40.41;20.77;99988.28;144154;571;132912;-69
2021/08/29 10:28:55;;;;;;;;;10.25;10.25;;;;;40.04;21.52;99986.16;144176;569;132013;-69
2021/08/29 10:31:38;;;;;;;;;11.00;10.00;;;;;38.89;23.11;99990.22;144155;685;132012;-68
2021/08/29 10:34:21;;;;;;;;;6.75;6.75;;;;;38.29;21.80;99995.16;144173;599;132012;-69
2021/08/29 10:36:56;;;;;;;;;9.50;8.75;;;;;38.42;21.54;99988.53;144169;658;132031;-68
2021/08/29 10:39:30;;;;;;;;;10.00;10.00;;;;;37.86;22.42;99997.25;144177;646;131020;-68
2021/08/29 10:42:05;;;;;;;;;7.75;7.00;;;;;37.82;24.64;99976.88;144152;599;132014;-69
2021/08/29 10:44:40;;;;;;;;;7.00;7.00;;;;;37.46;23.62;99975.25;144161;610;132011;-68
2021/08/29 10:47:14;;;;;;;;;9.50;7.00;;;;;36.95;23.34;99980.28;144155;590;132913;-68
2021/08/29 10:49:50;;;;;;;;;10.50;8.75;;;;;37.44;23.29;99975.47;144174;564;132008;-68
2021/08/29 10:52:24;;;;;;;;;10.50;10.50;;;;;37.36;23.02;99970.34;144157;621;132033;-68
2021/08/29 10:54:59;;;;;;;;;10.00;10.00;;;;;37.67;23.34;99971.06;144166;730;132020;-70
2021/08/29 10:57:43;;;;;;;;;7.50;7.50;;;;;37.14;24.88;99983.78;144154;640;132014;-68
2021/08/29 11:00:20;;;;;;;;;12.00;11.00;;;;;36.80;25.40;99987.06;144168;664;132011;-68
2021/08/29 11:02:55;;;;;;;;;9.50;9.25;;;;;36.67;24.85;99970.81;144170;608;131912;-68
2021/08/29 11:05:55;;;;;;;;;9.75;9.00;;;;;36.33;26.24;99981.38;144173;573;131022;-69
2021/08/29 11:08:31;;;;;;;;;8.25;8.25;;;;;36.73;25.07;99967.12;144153;569;132914;-69
2021/08/29 11:11:05;;;;;;;;;7.00;7.00;;;;;36.85;24.33;99959.81;144161;569;132010;-68
2021/08/29 11:13:41;;;;;;;;;7.75;7.25;;;;;37.35;23.65;99960.50;144154;609;132912;-68
2021/08/29 11:16:19;;;;;;;;;7.50;7.50;;;;;37.26;23.37;99965.44;144176;606;132012;-68
2021/08/29 11:19:25;;;;;;;;;9.25;8.75;;;;;37.43;24.14;99960.16;144150;603;132016;-68
2021/08/29 11:22:29;;;;;;;;;9.50;9.25;;;;;37.09;23.95;99948.94;144177;596;132010;-68
2021/08/29 11:25:21;;;;;;;;;9.50;8.25;;;;;38.14;22.55;99957.28;144151;604;132014;-69
2021/08/29 11:28:04;;;;;;;;;7.75;7.75;;;;;38.08;22.46;99956.37;144177;563;132010;-68
2021/08/29 11:30:47;;;;;;;;;7.75;7.00;;;;;38.33;22.01;99954.38;144169;609;131909;-68
2021/08/29 11:33:30;;;;;;;;;8.25;7.00;;;;;38.06;21.91;99965.91;144175;566;132010;-68
2021/08/29 11:36:03;;;;;;;;;7.00;7.00;;;;;37.46;21.33;99956.91;144161;615;132020;-68
2021/08/29 11:38:39;;;;;;;;;6.50;6.50;;;;;37.75;19.80;99962.47;144157;566;132020;-68
2021/08/29 11:41:18;;;;;;;;;8.50;7.75;;;;;37.14;20.92;99946.31;144159;586;131912;-68
2021/08/29 11:43:54;;;;;;;;;9.25;8.25;;;;;37.64;20.50;99950.47;144177;576;132010;-68
2021/08/29 11:46:30;;;;;;;;;6.00;6.00;;;;;37.87;20.52;99949.63;144161;595;132012;-68
2021/08/29 11:49:07;;;;;;;;;5.00;5.00;;;;;37.70;20.14;99951.41;144181;600;132012;-69